createdAt,value
2022-09-23T00:00:17.288Z,98751.71
2022-09-23T00:04:11.320Z,98750.70
2022-09-23T00:08:05.316Z,98742.38
2022-09-23T00:12:12.493Z,98739.70
2022-09-23T00:16:20.928Z,98733.88
2022-09-23T00:20:29.250Z,98729.48
2022-09-23T00:24:36.305Z,98726.54
2022-09-23T00:28:44.540Z,98715.98
2022-09-23T00:32:54.817Z,98710.36
2022-09-23T00:37:04.763Z,98713.17
2022-09-23T00:41:04.021Z,98703.91
2022-09-23T00:45:23.169Z,98702.63
2022-09-23T00:49:31.323Z,98700.90
2022-09-23T00:53:39.656Z,98700.40
2022-09-23T00:57:47.827Z,98707.20
2022-09-23T01:01:49.845Z,98707.33
2022-09-23T01:05:58.069Z,98702.40
2022-09-23T01:10:06.267Z,98699.38
2022-09-23T01:14:28.359Z,98695.56
2022-09-23T01:18:51.754Z,98692.59
2022-09-23T01:23:08.047Z,98694.23
2022-09-23T01:27:25.480Z,98694.78
2022-09-23T01:31:38.381Z,98703.80
2022-09-23T01:35:33.898Z,98706.08
2022-09-23T01:39:50.964Z,98706.52
2022-09-23T01:43:59.164Z,98709.19
2022-09-23T01:47:52.739Z,98710.34
2022-09-23T01:52:03.933Z,98704.24
2022-09-23T01:56:12.131Z,98699.51
2022-09-23T02:00:11.940Z,98702.80
2022-09-23T02:03:59.886Z,98703.98
2022-09-23T02:08:00.888Z,98699.33
2022-09-23T02:12:12.104Z,98701.79
2022-09-23T02:16:12.956Z,98696.25
2022-09-23T02:20:27.160Z,98695.23
2022-09-23T02:24:38.341Z,98697.39
2022-09-23T02:28:52.747Z,98701.35
2022-09-23T02:33:14.332Z,98698.83
2022-09-23T02:37:33.378Z,98697.65
2022-09-23T02:41:56.765Z,98693.86
2022-09-23T02:46:13.447Z,98695.50
2022-09-23T02:50:24.946Z,98697.81
2022-09-23T02:54:31.900Z,98699.44
2022-09-23T02:58:40.025Z,98703.33
2022-09-23T03:02:39.357Z,98706.59
2022-09-23T03:06:40.178Z,98713.36
2022-09-23T03:10:57.377Z,98711.92
2022-09-23T03:15:11.442Z,98713.63
2022-09-23T03:19:03.686Z,98711.35
2022-09-23T03:23:06.495Z,98716.45
2022-09-23T03:27:08.175Z,98717.09
2022-09-23T03:31:17.546Z,98716.38
2022-09-23T03:35:25.774Z,98711.44
2022-09-23T03:39:36.023Z,98710.52
2022-09-23T03:43:38.951Z,98705.58
2022-09-23T03:47:48.418Z,98693.57
2022-09-23T03:52:02.493Z,98698.55
2022-09-23T03:56:11.781Z,98694.98
2022-09-23T04:00:19.886Z,98688.02
2022-09-23T04:04:28.180Z,98697.27
2022-09-23T04:08:22.625Z,98696.41
2022-09-23T04:12:13.417Z,98697.31
2022-09-23T04:19:44.083Z,98699.56
2022-09-23T04:23:30.854Z,98704.55
2022-09-23T04:27:40.094Z,98700.64
2022-09-23T04:31:48.218Z,98705.11
2022-09-23T04:35:51.115Z,98705.44
2022-09-23T04:39:47.873Z,98708.10
2022-09-23T04:43:28.492Z,98707.76
2022-09-23T04:46:36.038Z,98705.81
2022-09-23T04:50:03.845Z,98705.95
2022-09-23T04:53:54.054Z,98703.50
2022-09-23T04:57:47.074Z,98697.29
2022-09-23T05:01:34.566Z,98694.48
2022-09-23T05:05:43.910Z,98691.89
2022-09-23T05:09:44.395Z,98697.70
2022-09-23T05:13:10.194Z,98698.25
2022-09-23T05:16:48.946Z,98693.99
2022-09-23T05:20:57.139Z,98696.17
2022-09-23T05:24:56.220Z,98702.52
2022-09-23T05:29:07.891Z,98707.77
2022-09-23T05:33:01.430Z,98701.46
2022-09-23T05:37:03.385Z,98701.17
2022-09-23T05:40:36.766Z,98700.40
2022-09-23T05:44:16.374Z,98705.31
2022-09-23T05:47:22.301Z,98706.55
2022-09-23T05:50:55.005Z,98706.01
2022-09-23T05:54:22.758Z,98705.51
2022-09-23T05:57:34.909Z,98705.41
2022-09-23T06:01:23.120Z,98701.66
2022-09-23T06:05:09.322Z,98709.63
2022-09-23T06:09:05.396Z,98711.50
2022-09-23T06:12:55.886Z,98711.55
2022-09-23T06:16:08.967Z,98710.87
2022-09-23T06:19:16.015Z,98711.56
2022-09-23T06:22:42.878Z,98714.56
2022-09-23T06:26:23.255Z,98710.59
2022-09-23T06:30:31.414Z,98711.20
2022-09-23T06:33:34.740Z,98711.40
2022-09-23T06:36:55.386Z,98709.27
2022-09-23T06:40:14.365Z,98714.21
2022-09-23T06:43:43.254Z,98715.99
2022-09-23T06:46:57.532Z,98722.69
2022-09-23T06:50:20.963Z,98728.55
2022-09-23T06:53:43.956Z,98726.65
2022-09-23T06:56:39.723Z,98725.73
2022-09-23T06:59:37.432Z,98725.27
2022-09-23T07:03:48.566Z,98727.73
2022-09-23T07:07:50.658Z,98726.73
2022-09-23T07:11:25.249Z,98728.77
2022-09-23T07:15:01.910Z,98730.94
2022-09-23T07:18:25.907Z,98732.63
2022-09-23T07:22:32.929Z,98732.69
2022-09-23T07:26:19.032Z,98734.73
2022-09-23T07:30:03.718Z,98736.83
2022-09-23T07:34:11.931Z,98733.73
2022-09-23T07:37:32.186Z,98729.13
2022-09-23T07:41:24.903Z,98736.33
2022-09-23T07:45:34.194Z,98735.68
2022-09-23T07:49:08.783Z,98735.23
2022-09-23T07:53:03.031Z,98738.79
2022-09-23T07:56:33.450Z,98737.12
2022-09-23T08:00:16.124Z,98735.37
2022-09-23T08:04:24.282Z,98732.42
2022-09-23T08:08:07.981Z,98734.09
2022-09-23T08:11:50.888Z,98732.44
2022-09-23T08:15:59.889Z,98729.61
2022-09-23T08:20:08.050Z,98729.36
2022-09-23T08:24:06.897Z,98724.74
2022-09-23T08:28:04.973Z,98722.42
2022-09-23T08:32:04.471Z,98720.31
2022-09-23T08:35:54.532Z,98716.21
2022-09-23T08:39:43.726Z,98721.76
2022-09-23T08:43:58.139Z,98720.56
2022-09-23T08:48:10.811Z,98716.72
2022-09-23T08:52:17.007Z,98718.40
2022-09-23T08:56:40.648Z,98718.71
2022-09-23T09:00:48.967Z,98719.59
2022-09-23T09:05:18.233Z,98721.84
2022-09-23T09:09:26.440Z,98720.09
2022-09-23T09:13:06.181Z,98721.97
2022-09-23T09:16:58.474Z,98722.81
2022-09-23T09:20:45.269Z,98718.14
2022-09-23T09:24:17.199Z,98712.45
2022-09-23T09:27:27.191Z,98717.09
2022-09-23T09:31:36.410Z,98726.98
2022-09-23T09:35:36.866Z,98721.61
2022-09-23T09:39:27.488Z,98718.25
2022-09-23T09:42:31.451Z,98716.49
2022-09-23T09:46:11.113Z,98718.37
2022-09-23T09:49:55.768Z,98718.02
2022-09-23T09:54:02.721Z,98719.55
2022-09-23T09:56:57.673Z,98722.24
2022-09-23T10:00:29.508Z,98725.01
2022-09-23T10:04:01.839Z,98725.72
2022-09-23T10:07:01.602Z,98725.93
2022-09-23T10:09:44.460Z,98729.71
2022-09-23T10:12:51.114Z,98725.27
2022-09-23T10:16:33.901Z,98724.16
2022-09-23T10:20:10.784Z,98726.56
2022-09-23T10:23:38.928Z,98724.80
2022-09-23T10:26:32.973Z,98716.86
2022-09-23T10:29:50.278Z,98717.48
2022-09-23T10:33:12.151Z,98712.11
2022-09-23T10:36:28.834Z,98706.27
2022-09-23T10:39:53.443Z,98703.75
2022-09-23T10:43:48.798Z,98695.96
2022-09-23T10:47:43.145Z,98696.96
2022-09-23T10:51:08.578Z,98694.40
2022-09-23T10:53:49.413Z,98690.89
2022-09-23T10:57:25.420Z,98690.70
2022-09-23T11:00:27.599Z,98685.99
2022-09-23T11:03:30.623Z,98686.37
2022-09-23T11:07:08.453Z,98680.23
2022-09-23T11:10:44.918Z,98678.61
2022-09-23T11:14:15.919Z,98676.41
2022-09-23T11:17:42.849Z,98678.35
2022-09-23T11:21:12.510Z,98672.96
2022-09-23T11:24:02.102Z,98676.40
2022-09-23T11:27:10.301Z,98673.77
2022-09-23T11:29:59.360Z,98677.44
2022-09-23T11:33:07.277Z,98674.19
2022-09-23T11:36:02.915Z,98674.54
2022-09-23T11:38:52.218Z,98669.43
2022-09-23T11:41:28.268Z,98669.91
2022-09-23T11:44:37.213Z,98666.80
2022-09-23T11:47:11.289Z,98663.15
2022-09-23T11:49:49.581Z,98660.48
2022-09-23T11:52:42.112Z,98663.41
2022-09-23T11:55:56.324Z,98660.75
2022-09-23T11:58:52.147Z,98658.77
2022-09-23T12:02:12.401Z,98657.10
2022-09-23T12:05:22.141Z,98666.23
2022-09-23T12:07:58.413Z,98666.02
2022-09-23T12:11:24.676Z,98668.91
2022-09-23T12:14:51.365Z,98667.23
2022-09-23T12:18:22.235Z,98669.81
2022-09-23T12:21:50.665Z,98671.48
2022-09-23T12:25:17.835Z,98672.88
2022-09-23T12:28:45.110Z,98666.38
2022-09-23T12:31:48.308Z,98666.19
2022-09-23T12:35:03.538Z,98659.97
2022-09-23T12:38:04.143Z,98658.05
2022-09-23T12:40:44.895Z,98653.74
2022-09-23T12:44:15.235Z,98647.14
2022-09-23T12:47:25.910Z,98639.09
2022-09-23T12:49:59.384Z,98639.40
2022-09-23T12:53:55.377Z,98632.29
2022-09-23T12:56:49.626Z,98626.69
2022-09-23T12:59:48.662Z,98623.55
2022-09-23T13:03:03.873Z,98624.69
2022-09-23T13:06:19.867Z,98626.52
2022-09-23T13:09:32.213Z,98617.77
2022-09-23T13:12:29.781Z,98620.27
2022-09-23T13:15:18.072Z,98622.12
2022-09-23T13:18:15.130Z,98614.29
2022-09-23T13:20:53.463Z,98610.67
2022-09-23T13:24:04.140Z,98612.08
2022-09-23T13:27:01.009Z,98617.41
2022-09-23T13:30:26.523Z,98616.14
2022-09-23T13:33:27.581Z,98616.09
2022-09-23T13:37:22.153Z,98612.67
2022-09-23T13:41:23.794Z,98614.30
2022-09-23T13:45:32.000Z,98612.41
2022-09-23T13:48:36.239Z,98607.52
2022-09-23T13:52:09.349Z,98606.44
2022-09-23T13:55:33.116Z,98601.85
2022-09-23T13:58:50.448Z,98597.35
2022-09-23T14:02:47.462Z,98592.25
2022-09-23T14:06:17.996Z,98586.06
2022-09-23T14:09:32.162Z,98584.04
2022-09-23T14:12:48.574Z,98585.07
2022-09-23T14:15:41.163Z,98581.20
2022-09-23T14:18:42.189Z,98580.48
2022-09-23T14:21:56.615Z,98578.38
2022-09-23T14:25:03.522Z,98577.02
2022-09-23T14:27:48.752Z,98574.42
2022-09-23T14:30:39.282Z,98578.52
2022-09-23T14:33:18.568Z,98586.98
2022-09-23T14:36:25.760Z,98582.05
2022-09-23T14:39:37.114Z,98586.98
2022-09-23T14:42:17.726Z,98589.66
2022-09-23T14:45:22.679Z,98591.49
2022-09-23T14:48:38.155Z,98596.30
2022-09-23T14:51:36.445Z,98623.02
2022-09-23T14:55:12.146Z,98643.21
2022-09-23T14:58:41.734Z,98654.44
2022-09-23T15:02:48.449Z,98664.56
2022-09-23T15:06:00.022Z,98652.08
2022-09-23T15:09:20.078Z,98640.38
2022-09-23T15:12:50.875Z,98631.58
2022-09-23T15:16:23.351Z,98629.09
2022-09-23T15:19:46.711Z,98623.33
2022-09-23T15:23:11.591Z,98621.30
2022-09-23T15:27:19.729Z,98627.24
2022-09-23T15:30:44.822Z,98626.86
2022-09-23T15:34:18.488Z,98619.61
2022-09-23T15:37:12.697Z,98620.64
2022-09-23T15:41:03.704Z,98622.58
2022-09-23T15:44:53.091Z,98629.49
2022-09-23T15:48:41.252Z,98630.23
2022-09-23T15:52:12.782Z,98633.03
2022-09-23T15:55:19.273Z,98629.22
2022-09-23T15:58:21.581Z,98630.91
2022-09-23T16:02:04.048Z,98631.98
2022-09-23T16:06:10.573Z,98635.33
2022-09-23T16:09:44.148Z,98637.02
2022-09-23T16:13:27.744Z,98643.95
2022-09-23T16:17:07.749Z,98638.77
2022-09-23T16:20:17.823Z,98644.90
2022-09-23T16:23:55.553Z,98644.77
2022-09-23T16:27:51.870Z,98640.37
2022-09-23T16:31:51.472Z,98638.90
2022-09-23T16:35:47.104Z,98640.08
2022-09-23T16:39:48.673Z,98640.14
2022-09-23T16:43:16.790Z,98640.95
2022-09-23T16:47:12.282Z,98638.08
2022-09-23T16:50:32.757Z,98630.33
2022-09-23T16:53:59.351Z,98625.73
2022-09-23T16:57:33.827Z,98632.40
2022-09-23T17:00:35.861Z,98631.20
2022-09-23T17:03:51.598Z,98632.80
2022-09-23T17:07:16.062Z,98635.23
2022-09-23T17:10:15.335Z,98639.23
2022-09-23T17:13:38.174Z,98639.52
2022-09-23T17:17:20.554Z,98645.39
2022-09-23T17:20:36.650Z,98640.05
2022-09-23T17:23:38.710Z,98642.13
2022-09-23T17:27:28.208Z,98643.68
2022-09-23T17:31:26.791Z,98642.48
2022-09-23T17:35:01.859Z,98649.68
2022-09-23T17:38:34.526Z,98658.75
2022-09-23T17:41:21.596Z,98658.20
2022-09-23T17:44:49.046Z,98654.95
2022-09-23T17:48:27.385Z,98655.53
2022-09-23T17:52:33.348Z,98656.72
2022-09-23T17:56:11.582Z,98657.77
2022-09-23T17:59:53.678Z,98659.58
2022-09-23T18:03:03.148Z,98659.95
2022-09-23T18:06:21.676Z,98657.44
2022-09-23T18:10:16.895Z,98654.64
2022-09-23T18:14:09.336Z,98654.21
2022-09-23T18:17:41.966Z,98661.77
2022-09-23T18:21:25.777Z,98662.10
2022-09-23T18:25:38.660Z,98660.88
2022-09-23T18:29:38.999Z,98659.33
2022-09-23T18:32:50.032Z,98661.30
2022-09-23T18:36:40.778Z,98660.88
2022-09-23T18:40:49.925Z,98658.31
2022-09-23T18:44:40.512Z,98660.11
2022-09-23T18:48:30.428Z,98661.30
2022-09-23T18:52:06.920Z,98660.71
2022-09-23T18:56:06.836Z,98665.60
2022-09-23T19:00:07.627Z,98666.85
2022-09-23T19:04:06.691Z,98669.53
2022-09-23T19:07:32.630Z,98672.33
2022-09-23T19:11:01.383Z,98666.63
2022-09-23T19:14:55.843Z,98661.70
2022-09-23T19:18:44.175Z,98663.27
2022-09-23T19:22:52.407Z,98658.09
2022-09-23T19:27:03.704Z,98656.94
2022-09-23T19:31:05.391Z,98661.09
2022-09-23T19:35:01.547Z,98656.94
2022-09-23T19:38:49.858Z,98657.67
2022-09-23T19:42:48.054Z,98659.91
2022-09-23T19:46:57.305Z,98655.93
2022-09-23T19:50:45.887Z,98657.34
2022-09-23T19:54:47.042Z,98657.64
2022-09-23T19:58:37.829Z,98659.91
2022-09-23T20:02:47.872Z,98661.96
2022-09-23T20:06:46.155Z,98658.69
2022-09-23T20:10:28.560Z,98657.91
2022-09-23T20:14:06.746Z,98654.36
2022-09-23T20:17:40.269Z,98661.38
2022-09-23T20:21:04.075Z,98662.15
2022-09-23T20:24:42.406Z,98660.73
2022-09-23T20:28:21.106Z,98662.25
2022-09-23T20:31:42.277Z,98660.83
2022-09-23T20:35:19.138Z,98655.52
2022-09-23T20:38:50.158Z,98653.13
2022-09-23T20:42:58.331Z,98653.80
2022-09-23T20:46:48.291Z,98652.53
2022-09-23T20:50:30.257Z,98655.60
2022-09-23T20:53:57.873Z,98656.64
2022-09-23T20:57:57.135Z,98650.48
2022-09-23T21:01:48.497Z,98646.95
2022-09-23T21:05:27.271Z,98646.04
2022-09-23T21:09:02.792Z,98642.17
2022-09-23T21:12:45.319Z,98637.92
2022-09-23T21:16:34.724Z,98633.98
2022-09-23T21:19:41.667Z,98632.98
2022-09-23T21:23:02.760Z,98629.11
2022-09-23T21:26:28.271Z,98636.60
2022-09-23T21:29:41.318Z,98634.15
2022-09-23T21:33:28.427Z,98636.30
2022-09-23T21:36:40.455Z,98634.73
2022-09-23T21:40:27.107Z,98632.23
2022-09-23T21:43:42.476Z,98629.98
2022-09-23T21:47:25.871Z,98634.00
2022-09-23T21:51:46.041Z,98633.85
2022-09-23T21:55:47.388Z,98636.23
2022-09-23T21:59:37.226Z,98634.23
2022-09-23T22:03:16.363Z,98632.76
2022-09-23T22:06:42.047Z,98631.20
2022-09-23T22:09:47.999Z,98628.08
2022-09-23T22:13:49.799Z,98626.45
2022-09-23T22:17:07.298Z,98623.34
2022-09-23T22:20:28.531Z,98626.68
2022-09-23T22:23:49.421Z,98625.11
2022-09-23T22:26:34.511Z,98628.90
2022-09-23T22:30:30.786Z,98631.22
2022-09-23T22:34:01.153Z,98633.91
2022-09-23T22:38:02.410Z,98633.89
2022-09-23T22:41:54.571Z,98635.73
2022-09-23T22:45:43.483Z,98635.00
2022-09-23T22:49:10.580Z,98638.08
2022-09-23T22:52:23.007Z,98638.62
2022-09-23T22:56:21.678Z,98639.83
2022-09-23T23:00:12.890Z,98637.92
2022-09-23T23:04:20.062Z,98641.52
2022-09-23T23:08:22.157Z,98638.15
2022-09-23T23:12:30.303Z,98639.84
2022-09-23T23:16:44.451Z,98641.24
2022-09-23T23:20:51.147Z,98637.06
2022-09-23T23:24:59.283Z,98634.17
2022-09-23T23:28:31.291Z,98636.52
2022-09-23T23:32:38.370Z,98635.30
2022-09-23T23:36:48.251Z,98632.85
2022-09-23T23:40:56.614Z,98632.05
2022-09-23T23:44:50.669Z,98633.05
2022-09-23T23:48:58.822Z,98628.78
2022-09-23T23:53:05.571Z,98633.30
2022-09-23T23:56:57.613Z,98630.97
